Time;durP1;ratioP1;P1;durP2;ratioP2;P2;SDS_P1;SDS_P2;PMS_P1;PMS_P2;Temp;Humidity;BMP_temperature;BMP_pressure;BME280_temperature;BME280_humidity;BME280_pressure;Samples;Min_cycle;Max_cycle;Signal;HPM_P1;HPM_P2
2021/01/26 00:02:05;;;;;;;15.20;12.90;;;0.30;99.90;;;;;;5026953;28;20183;-75
2021/01/26 00:04:31;;;;;;;16.57;12.50;;;0.30;99.90;;;;;;5020898;28;20198;-75
2021/01/26 00:06:56;;;;;;;17.33;12.83;;;0.30;99.90;;;;;;5031230;28;20480;-75
2021/01/26 00:09:22;;;;;;;19.83;13.37;;;0.30;99.90;;;;;;5029089;28;20242;-77
2021/01/26 00:11:47;;;;;;;20.80;14.03;;;0.30;99.90;;;;;;5032509;28;20647;-77
2021/01/26 00:14:14;;;;;;;18.50;14.50;;;0.30;99.90;;;;;;5012030;28;20592;-76
2021/01/26 00:16:39;;;;;;;14.27;12.73;;;0.30;99.90;;;;;;5017380;28;20188;-75
2021/01/26 00:19:06;;;;;;;18.90;13.83;;;0.40;99.90;;;;;;5029847;28;20465;-75
2021/01/26 00:21:32;;;;;;;15.77;12.97;;;0.40;99.90;;;;;;5030047;28;20182;-75
2021/01/26 00:23:57;;;;;;;19.77;13.97;;;0.40;99.90;;;;;;5030479;28;20434;-75
2021/01/26 00:26:23;;;;;;;19.00;13.97;;;0.40;99.90;;;;;;5029189;28;20190;-75
2021/01/26 00:28:48;;;;;;;16.03;14.43;;;0.40;99.90;;;;;;5033120;28;20198;-76
2021/01/26 00:31:14;;;;;;;15.90;11.73;;;0.40;99.90;;;;;;5028340;28;20214;-76
2021/01/26 00:33:40;;;;;;;18.67;13.07;;;0.40;99.90;;;;;;5017763;28;20204;-75
2021/01/26 00:36:05;;;;;;;14.97;11.93;;;0.40;99.90;;;;;;5035680;28;20201;-74
2021/01/26 00:38:31;;;;;;;16.80;12.23;;;0.40;99.90;;;;;;5027561;28;20582;-75
2021/01/26 00:40:56;;;;;;;15.80;13.03;;;0.40;99.90;;;;;;5029494;28;20213;-77
2021/01/26 00:43:22;;;;;;;18.10;13.10;;;0.40;99.90;;;;;;5027765;28;20559;-77
2021/01/26 00:45:48;;;;;;;16.10;12.47;;;0.40;99.90;;;;;;5021586;28;20192;-76
2021/01/26 00:48:15;;;;;;;18.80;12.37;;;0.50;99.90;;;;;;5027403;28;20204;-75
2021/01/26 00:50:41;;;;;;;14.63;12.57;;;0.40;99.90;;;;;;5028339;28;20752;-78
2021/01/26 00:53:07;;;;;;;16.37;12.17;;;0.40;99.90;;;;;;5024243;28;20773;-76
2021/01/26 00:55:33;;;;;;;16.87;11.60;;;0.50;99.90;;;;;;5030852;28;20969;-75
2021/01/26 00:57:58;;;;;;;16.27;12.10;;;0.50;99.90;;;;;;5029811;28;20465;-75
2021/01/26 01:00:34;;;;;;;17.00;12.20;;;0.40;99.90;;;;;;5032320;28;20624;-75
2021/01/26 01:03:00;;;;;;;12.80;11.50;;;0.40;99.90;;;;;;5026661;28;20179;-73
2021/01/26 01:05:26;;;;;;;14.40;12.20;;;0.40;99.90;;;;;;5020586;28;20432;-74
2021/01/26 01:07:53;;;;;;;16.53;11.50;;;0.40;99.90;;;;;;5023606;28;20184;-75
2021/01/26 01:10:25;;;;;;;15.10;11.07;;;0.40;99.90;;;;;;5013364;28;20199;-75
2021/01/26 01:12:50;;;;;;;15.73;10.23;;;0.40;99.90;;;;;;5027763;28;20445;-77
2021/01/26 01:15:18;;;;;;;13.73;11.93;;;0.40;99.90;;;;;;5021482;28;20450;-78
2021/01/26 01:17:44;;;;;;;13.43;11.20;;;0.40;99.90;;;;;;5027598;28;20511;-75
2021/01/26 01:20:13;;;;;;;14.87;10.60;;;0.40;99.90;;;;;;5029193;28;20468;-75
2021/01/26 01:22:38;;;;;;;14.20;10.77;;;0.50;99.90;;;;;;5030951;28;20498;-76
2021/01/26 01:25:05;;;;;;;14.23;11.70;;;0.50;99.90;;;;;;5030613;28;20422;-77
2021/01/26 01:27:31;;;;;;;14.87;11.20;;;0.50;99.90;;;;;;5025440;28;20227;-76
2021/01/26 01:29:56;;;;;;;14.37;10.17;;;0.50;99.90;;;;;;5031518;28;20499;-78
2021/01/26 01:32:22;;;;;;;12.70;11.27;;;0.50;99.90;;;;;;5033758;28;20202;-76
2021/01/26 01:34:47;;;;;;;13.10;11.07;;;0.50;99.90;;;;;;5032734;28;20194;-76
2021/01/26 01:37:13;;;;;;;14.83;10.30;;;0.50;99.90;;;;;;5027201;28;20187;-75
2021/01/26 01:39:38;;;;;;;12.80;10.70;;;0.50;99.90;;;;;;5035943;28;20234;-74
2021/01/26 01:42:11;;;;;;;16.33;11.20;;;0.60;99.90;;;;;;5027105;28;20690;-76
2021/01/26 01:44:37;;;;;;;15.30;12.10;;;0.60;99.90;;;;;;5026173;28;20298;-77
2021/01/26 01:47:07;;;;;;;19.50;11.60;;;0.60;99.90;;;;;;5021447;28;20477;-76
2021/01/26 01:49:46;;;;;;;16.23;12.13;;;0.60;99.90;;;;;;5027183;28;21003;-77
2021/01/26 01:52:19;;;;;;;15.33;10.93;;;0.60;99.90;;;;;;5017716;28;20419;-76
2021/01/26 01:54:53;;;;;;;14.83;10.73;;;0.50;99.90;;;;;;5031822;28;20852;-76
2021/01/26 01:57:33;;;;;;;16.80;11.47;;;0.50;99.90;;;;;;5024375;28;20433;-76
2021/01/26 02:00:06;;;;;;;12.80;11.47;;;0.60;99.90;;;;;;5015518;28;20945;-77
2021/01/26 02:02:32;;;;;;;15.20;11.43;;;0.50;99.90;;;;;;5010925;28;20418;-77
2021/01/26 02:05:01;;;;;;;17.37;11.80;;;0.50;99.90;;;;;;5014126;28;20776;-74
2021/01/26 02:07:28;;;;;;;18.30;12.20;;;0.50;99.90;;;;;;5026215;28;20543;-76
2021/01/26 02:09:53;;;;;;;14.90;12.20;;;0.60;99.90;;;;;;5026698;28;20445;-80
2021/01/26 02:12:19;;;;;;;19.60;11.90;;;0.60;99.90;;;;;;5027079;28;20416;-77
2021/01/26 02:14:51;;;;;;;19.90;12.77;;;0.50;99.90;;;;;;5009594;28;20194;-76
2021/01/26 02:18:00;;;;;;;18.80;13.13;;;0.50;99.90;;;;;;5027607;28;20183;-76
2021/01/26 02:20:44;;;;;;;21.20;13.60;;;0.50;99.90;;;;;;4929049;29;20623;-77
2021/01/26 02:23:29;;;;;;;23.37;14.53;;;0.50;99.90;;;;;;4932007;29;20497;-77
2021/01/26 02:26:12;;;;;;;18.57;12.83;;;0.50;99.90;;;;;;4928440;29;20993;-75
2021/01/26 02:28:58;;;;;;;19.13;13.53;;;0.40;99.90;;;;;;4919956;29;20458;-75
2021/01/26 02:31:44;;;;;;;20.60;14.73;;;0.40;99.90;;;;;;4930827;29;20449;-76
2021/01/26 02:34:25;;;;;;;21.33;15.40;;;0.40;99.90;;;;;;4927613;29;20528;-76
2021/01/26 02:37:08;;;;;;;22.00;16.40;;;0.40;99.90;;;;;;4931972;29;20429;-76
2021/01/26 02:39:47;;;;;;;19.10;14.20;;;0.40;99.90;;;;;;4918004;29;20565;-77
2021/01/26 02:42:43;;;;;;;23.40;14.30;;;0.40;99.90;;;;;;4932280;29;20950;-76
2021/01/26 02:45:38;;;;;;;19.23;13.47;;;0.40;99.90;;;;;;4936631;29;20914;-74
2021/01/26 02:48:41;;;;;;;16.10;12.50;;;0.40;99.90;;;;;;4924484;29;20496;-77
2021/01/26 02:51:40;;;;;;;19.67;14.23;;;0.40;99.90;;;;;;4975235;28;20542;-77
2021/01/26 02:54:23;;;;;;;21.10;14.23;;;0.40;99.90;;;;;;5025999;28;20434;-75
2021/01/26 02:57:09;;;;;;;24.17;15.07;;;0.40;99.90;;;;;;5031547;28;20538;-78
2021/01/26 02:59:43;;;;;;;22.20;15.57;;;0.40;99.90;;;;;;5025348;28;20474;-77
2021/01/26 03:02:35;;;;;;;23.20;15.27;;;0.40;99.90;;;;;;5037378;28;20417;-78
2021/01/26 03:05:35;;;;;;;19.37;14.60;;;0.50;99.90;;;;;;4997858;28;20425;-75
2021/01/26 03:08:15;;;;;;;23.33;14.50;;;0.50;99.90;;;;;;4932379;29;20442;-77
2021/01/26 03:10:48;;;;;;;19.93;13.50;;;0.50;99.90;;;;;;4927643;29;20468;-75
2021/01/26 03:13:16;;;;;;;20.90;12.90;;;0.50;99.90;;;;;;4926207;29;20489;-76
2021/01/26 03:15:54;;;;;;;22.67;13.30;;;0.50;99.90;;;;;;4929730;29;20832;-76
2021/01/26 03:18:28;;;;;;;22.10;14.70;;;0.50;99.90;;;;;;4938002;29;20911;-75
2021/01/26 03:21:00;;;;;;;17.80;12.97;;;0.60;99.90;;;;;;4932830;29;20469;-76
2021/01/26 03:23:38;;;;;;;20.63;13.23;;;0.50;99.90;;;;;;4935233;29;20441;-78
2021/01/26 03:26:08;;;;;;;20.90;13.23;;;0.60;99.90;;;;;;4927799;29;20495;-76
2021/01/26 03:28:35;;;;;;;25.20;14.73;;;0.60;99.90;;;;;;4934322;29;20591;-77
2021/01/26 03:31:01;;;;;;;21.10;13.60;;;0.60;99.90;;;;;;4932122;29;20461;-78
2021/01/26 03:33:34;;;;;;;28.00;16.37;;;0.60;99.90;;;;;;4937006;29;21034;-76
2021/01/26 03:36:00;;;;;;;19.73;12.97;;;0.60;99.90;;;;;;4913853;29;20448;-75
2021/01/26 03:38:29;;;;;;;23.50;15.17;;;0.60;99.90;;;;;;4927207;29;20478;-76
2021/01/26 03:40:56;;;;;;;21.80;15.27;;;0.70;99.90;;;;;;4933681;29;20203;-75
2021/01/26 03:43:23;;;;;;;20.47;13.83;;;0.60;99.90;;;;;;4921785;29;20430;-72
2021/01/26 03:46:15;;;;;;;25.00;14.57;;;0.70;99.90;;;;;;5024766;28;20429;-75
2021/01/26 03:48:50;;;;;;;20.43;15.30;;;0.70;99.90;;;;;;5031997;28;20465;-75
2021/01/26 03:51:35;;;;;;;22.07;13.17;;;0.70;99.90;;;;;;5030519;28;20486;-75
2021/01/26 03:54:17;;;;;;;19.90;13.43;;;0.70;99.90;;;;;;5031107;28;20443;-76
2021/01/26 03:57:07;;;;;;;17.20;13.40;;;0.70;99.90;;;;;;5016200;28;20430;-76
2021/01/26 03:59:50;;;;;;;19.60;12.33;;;0.70;99.90;;;;;;5030058;28;20500;-77
2021/01/26 04:02:26;;;;;;;19.33;13.70;;;0.70;99.90;;;;;;5030669;28;20421;-75
2021/01/26 04:05:13;;;;;;;18.83;13.70;;;0.70;99.90;;;;;;5030347;28;20513;-76
2021/01/26 04:07:44;;;;;;;16.70;12.70;;;0.70;99.90;;;;;;5028978;28;20474;-76
2021/01/26 04:10:25;;;;;;;20.30;14.57;;;0.80;99.90;;;;;;5034930;28;20500;-77
2021/01/26 04:12:58;;;;;;;17.50;13.10;;;0.80;99.90;;;;;;5031514;28;20425;-76
2021/01/26 04:15:35;;;;;;;24.33;14.77;;;0.80;99.90;;;;;;5026250;28;20421;-76
2021/01/26 04:18:01;;;;;;;20.40;12.63;;;0.80;99.90;;;;;;5021919;28;20457;-76
2021/01/26 04:20:35;;;;;;;17.57;11.70;;;0.80;99.90;;;;;;5036488;28;20904;-75
2021/01/26 04:23:01;;;;;;;20.33;13.80;;;0.80;99.90;;;;;;5032004;28;20509;-76
2021/01/26 04:25:37;;;;;;;17.47;13.20;;;0.80;99.90;;;;;;5034059;28;20520;-75
2021/01/26 04:28:06;;;;;;;18.57;13.47;;;0.80;99.90;;;;;;5030005;28;20429;-75
2021/01/26 04:30:32;;;;;;;22.00;13.77;;;0.90;99.90;;;;;;5023836;28;20484;-75
2021/01/26 04:33:05;;;;;;;20.10;13.03;;;0.90;99.90;;;;;;5028603;28;20429;-75
2021/01/26 04:35:30;;;;;;;16.90;12.87;;;0.90;99.90;;;;;;5026484;28;20541;-77
2021/01/26 04:37:56;;;;;;;18.97;14.37;;;0.90;99.90;;;;;;5028298;28;20483;-75
2021/01/26 04:40:24;;;;;;;17.40;11.10;;;0.90;99.90;;;;;;5033254;28;20199;-74
2021/01/26 04:42:57;;;;;;;16.80;12.33;;;0.90;99.90;;;;;;5010631;28;20422;-75
2021/01/26 04:45:35;;;;;;;19.97;13.70;;;1.00;99.90;;;;;;5025554;28;20909;-72
2021/01/26 04:48:20;;;;;;;17.30;11.90;;;1.00;99.90;;;;;;5001109;28;20445;-77
2021/01/26 04:51:07;;;;;;;20.13;13.70;;;1.00;99.90;;;;;;5033174;28;20519;-77
2021/01/26 04:54:00;;;;;;;19.93;13.67;;;1.00;99.90;;;;;;5024140;28;20941;-75
2021/01/26 04:56:36;;;;;;;18.77;13.30;;;1.00;99.90;;;;;;5019266;28;20516;-75
2021/01/26 04:59:14;;;;;;;25.50;12.77;;;1.00;99.90;;;;;;5009349;28;20552;-76
2021/01/26 05:02:02;;;;;;;23.20;13.60;;;1.00;99.90;;;;;;5033442;28;20491;-76
2021/01/26 05:04:35;;;;;;;17.90;11.40;;;1.10;99.90;;;;;;5021531;28;20466;-76
2021/01/26 05:07:13;;;;;;;15.77;12.30;;;1.10;99.90;;;;;;5021061;28;20426;-75
2021/01/26 05:09:51;;;;;;;19.07;12.10;;;1.10;99.90;;;;;;5029649;28;20453;-74
2021/01/26 05:12:19;;;;;;;19.77;12.77;;;1.10;99.90;;;;;;5028519;28;20453;-78
2021/01/26 05:14:51;;;;;;;13.90;11.20;;;1.20;99.90;;;;;;5021930;28;20483;-77
2021/01/26 05:17:30;;;;;;;15.37;11.73;;;1.20;99.90;;;;;;5020069;28;20754;-78
2021/01/26 05:20:14;;;;;;;16.60;11.17;;;1.20;99.90;;;;;;5024574;28;20900;-78
2021/01/26 05:22:58;;;;;;;16.00;10.10;;;1.20;99.90;;;;;;5030876;28;20433;-79
2021/01/26 05:25:25;;;;;;;15.30;11.90;;;1.20;99.90;;;;;;5040052;28;20414;-78
2021/01/26 05:27:51;;;;;;;15.50;12.07;;;1.30;99.90;;;;;;5023823;28;20894;-78
2021/01/26 05:30:26;;;;;;;15.23;10.90;;;1.30;99.90;;;;;;5031378;28;21055;-78
2021/01/26 05:32:53;;;;;;;13.87;11.40;;;1.30;99.90;;;;;;5032828;28;20425;-79
2021/01/26 05:35:20;;;;;;;15.10;11.17;;;1.30;99.90;;;;;;5038765;28;20422;-79
2021/01/26 05:37:48;;;;;;;15.90;10.50;;;1.30;99.90;;;;;;5020345;28;20894;-78
2021/01/26 05:40:20;;;;;;;16.60;10.40;;;1.30;99.90;;;;;;5023034;28;20461;-77
2021/01/26 05:42:51;;;;;;;12.97;9.50;;;1.30;99.90;;;;;;5030453;28;20430;-78
2021/01/26 05:45:30;;;;;;;14.97;10.07;;;1.30;99.90;;;;;;5036232;28;20453;-76
2021/01/26 05:48:12;;;;;;;11.67;9.33;;;1.30;99.90;;;;;;5037866;28;20434;-77
2021/01/26 05:50:40;;;;;;;11.67;9.67;;;1.40;99.90;;;;;;5033607;28;20462;-79
2021/01/26 05:53:27;;;;;;;15.73;9.67;;;1.40;99.90;;;;;;5034150;28;20434;-78
2021/01/26 05:56:11;;;;;;;13.50;10.20;;;1.40;99.90;;;;;;5027898;28;20535;-79
2021/01/26 05:58:39;;;;;;;12.83;8.60;;;1.40;99.90;;;;;;5041887;28;20828;-77
2021/01/26 06:01:10;;;;;;;14.10;9.20;;;1.30;99.90;;;;;;5025744;28;21036;-78
2021/01/26 06:03:36;;;;;;;12.57;10.97;;;1.40;99.90;;;;;;5032685;28;20429;-77
2021/01/26 06:06:10;;;;;;;14.17;8.80;;;1.40;99.90;;;;;;5019386;28;20490;-76
2021/01/26 06:08:50;;;;;;;13.67;10.07;;;1.40;99.90;;;;;;5033039;28;20212;-77
2021/01/26 06:11:20;;;;;;;12.50;8.57;;;1.40;99.90;;;;;;5027245;28;20445;-78
2021/01/26 06:13:46;;;;;;;14.20;9.50;;;1.40;99.90;;;;;;5030556;28;20944;-78
2021/01/26 06:16:19;;;;;;;16.03;9.90;;;1.40;99.90;;;;;;5029522;28;20806;-78
2021/01/26 06:18:59;;;;;;;10.50;9.33;;;1.40;99.90;;;;;;5030634;28;20458;-75
2021/01/26 06:21:26;;;;;;;10.77;8.30;;;1.40;99.90;;;;;;5034486;28;20864;-76
2021/01/26 06:23:52;;;;;;;14.20;9.97;;;1.40;99.90;;;;;;5037875;28;20431;-77
2021/01/26 06:26:18;;;;;;;13.73;9.57;;;1.40;99.90;;;;;;5026256;28;20450;-77
2021/01/26 06:28:55;;;;;;;12.83;11.20;;;1.40;99.90;;;;;;5031677;28;20248;-76
2021/01/26 06:31:50;;;;;;;12.47;8.10;;;1.40;99.90;;;;;;5025913;28;20425;-76
2021/01/26 06:35:04;;;;;;;10.93;8.60;;;1.50;99.90;;;;;;5024307;28;20468;-77
2021/01/26 06:37:42;;;;;;;13.63;8.37;;;1.50;99.90;;;;;;4951003;28;20492;-76
2021/01/26 06:40:24;;;;;;;11.43;8.93;;;1.50;99.90;;;;;;5022210;28;20437;-76
2021/01/26 06:43:23;;;;;;;10.90;8.13;;;1.50;99.90;;;;;;5032187;28;20524;-77
2021/01/26 06:46:32;;;;;;;10.43;8.73;;;1.50;99.90;;;;;;5026560;28;20418;-75
2021/01/26 06:49:13;;;;;;;13.83;8.70;;;1.50;99.90;;;;;;5024681;28;20425;-77
2021/01/26 06:51:47;;;;;;;8.47;7.60;;;1.50;99.90;;;;;;5043983;28;20451;-76
2021/01/26 06:54:43;;;;;;;12.67;8.40;;;1.50;99.90;;;;;;5039631;28;20508;-76
2021/01/26 06:57:27;;;;;;;15.30;9.90;;;1.50;99.90;;;;;;5034369;28;20505;-77
2021/01/26 07:00:06;;;;;;;12.47;8.40;;;1.50;99.90;;;;;;5020074;28;20481;-78
2021/01/26 07:03:00;;;;;;;14.43;8.90;;;1.60;99.90;;;;;;5028522;28;20430;-77
2021/01/26 07:06:01;;;;;;;12.20;8.50;;;1.60;99.90;;;;;;4994689;28;20433;-78
2021/01/26 07:08:47;;;;;;;12.47;8.00;;;1.60;99.90;;;;;;5017334;28;20414;-78
2021/01/26 07:11:13;;;;;;;9.33;6.90;;;1.60;99.90;;;;;;5028145;28;20444;-76
2021/01/26 07:14:00;;;;;;;10.93;8.00;;;1.60;99.90;;;;;;5030320;28;20856;-77
2021/01/26 07:16:53;;;;;;;13.37;8.87;;;1.60;99.90;;;;;;5027812;28;20526;-77
2021/01/26 07:19:46;;;;;;;8.37;7.47;;;1.60;99.90;;;;;;5031244;28;20845;-80
2021/01/26 07:22:18;;;;;;;11.87;7.50;;;1.60;99.90;;;;;;5032213;28;20450;-78
2021/01/26 07:25:09;;;;;;;12.03;9.03;;;1.60;99.90;;;;;;5037721;28;20929;-77
2021/01/26 07:27:59;;;;;;;11.43;8.20;;;1.70;99.90;;;;;;5027116;28;20426;-78
2021/01/26 07:30:31;;;;;;;8.43;6.80;;;1.70;99.90;;;;;;5032360;28;20508;-78
2021/01/26 07:33:19;;;;;;;9.10;7.30;;;1.70;99.90;;;;;;5033197;28;20524;-77
2021/01/26 07:36:01;;;;;;;10.20;8.27;;;1.60;99.90;;;;;;5023571;28;20414;-77
2021/01/26 07:38:40;;;;;;;11.03;7.17;;;1.70;99.90;;;;;;5027798;28;20462;-75
2021/01/26 07:41:17;;;;;;;8.90;7.43;;;1.70;99.90;;;;;;5027258;28;20460;-76
2021/01/26 07:44:11;;;;;;;8.50;7.03;;;1.80;99.90;;;;;;5014342;28;20463;-78
2021/01/26 07:46:53;;;;;;;6.10;5.57;;;1.80;99.90;;;;;;5011116;28;20531;-77
2021/01/26 07:49:34;;;;;;;7.00;6.30;;;1.80;99.90;;;;;;5021137;28;20464;-76
2021/01/26 07:52:02;;;;;;;8.93;6.03;;;1.80;99.90;;;;;;5023586;28;20433;-77
2021/01/26 07:54:41;;;;;;;9.20;6.57;;;1.80;99.90;;;;;;5031111;28;20518;-75
2021/01/26 07:57:09;;;;;;;8.60;7.67;;;1.90;99.90;;;;;;5032190;28;20429;-76
2021/01/26 07:59:38;;;;;;;12.20;8.53;;;1.80;99.90;;;;;;5024347;28;20569;-78
2021/01/26 08:02:16;;;;;;;11.47;6.07;;;1.90;99.90;;;;;;5023260;28;20484;-75
2021/01/26 08:04:42;;;;;;;9.83;8.37;;;1.90;99.90;;;;;;5025164;28;20478;-78
2021/01/26 08:07:19;;;;;;;10.87;7.10;;;2.00;99.90;;;;;;5027719;28;20781;-77
2021/01/26 08:09:47;;;;;;;10.93;7.00;;;2.00;99.90;;;;;;5022883;28;20767;-77
2021/01/26 08:12:20;;;;;;;8.37;6.30;;;2.00;99.90;;;;;;5033362;28;20490;-77
2021/01/26 08:14:50;;;;;;;6.70;5.50;;;2.00;99.90;;;;;;5031167;28;20448;-78
2021/01/26 08:17:30;;;;;;;6.53;5.93;;;2.00;99.90;;;;;;5040846;28;20511;-77
2021/01/26 08:20:08;;;;;;;9.43;5.80;;;2.10;99.90;;;;;;5030139;28;20501;-76
2021/01/26 08:22:36;;;;;;;9.27;6.67;;;2.10;99.90;;;;;;5002556;28;20517;-78
2021/01/26 08:25:24;;;;;;;8.10;6.57;;;2.20;99.90;;;;;;5028011;28;21016;-77
2021/01/26 08:27:53;;;;;;;7.63;5.53;;;2.20;99.90;;;;;;5028530;28;20432;-78
2021/01/26 08:30:29;;;;;;;6.47;5.50;;;2.20;99.90;;;;;;5018162;28;20528;-76
2021/01/26 08:33:16;;;;;;;6.97;6.27;;;2.20;99.90;;;;;;5005221;28;20470;-76
2021/01/26 08:35:48;;;;;;;8.60;6.07;;;2.20;99.90;;;;;;5031665;28;20881;-76
2021/01/26 08:38:51;;;;;;;9.60;7.77;;;2.20;99.90;;;;;;5022201;28;20989;-77
2021/01/26 08:41:33;;;;;;;7.73;6.63;;;2.20;99.90;;;;;;5026883;28;20441;-78
2021/01/26 08:43:58;;;;;;;7.97;6.33;;;2.20;99.90;;;;;;5035567;28;20436;-78
2021/01/26 08:46:34;;;;;;;7.00;6.10;;;2.10;99.90;;;;;;5007970;28;20437;-79
2021/01/26 08:49:04;;;;;;;6.10;4.87;;;2.10;99.90;;;;;;5025180;28;20624;-79
2021/01/26 08:51:30;;;;;;;7.60;5.67;;;2.10;99.90;;;;;;5025335;28;20429;-75
2021/01/26 08:53:56;;;;;;;6.67;6.07;;;2.10;99.90;;;;;;5031917;28;20441;-77
2021/01/26 08:56:27;;;;;;;12.50;7.13;;;2.10;99.90;;;;;;5032553;28;20441;-77
2021/01/26 08:58:56;;;;;;;6.27;5.67;;;2.10;99.90;;;;;;5030552;28;20488;-77
2021/01/26 09:01:24;;;;;;;6.80;5.67;;;2.00;99.90;;;;;;5027711;28;20933;-77
2021/01/26 09:03:51;;;;;;;8.07;5.30;;;2.10;99.90;;;;;;5026985;28;20448;-77
2021/01/26 09:06:35;;;;;;;9.13;6.40;;;2.10;99.90;;;;;;5028452;28;20468;-76
2021/01/26 09:09:00;;;;;;;7.10;5.57;;;2.20;99.90;;;;;;5037652;28;20733;-76
2021/01/26 09:11:47;;;;;;;5.57;5.07;;;2.20;99.90;;;;;;5032176;28;20439;-78
2021/01/26 09:14:27;;;;;;;5.40;5.00;;;2.20;99.90;;;;;;5003801;28;20190;-77
2021/01/26 09:17:02;;;;;;;6.10;4.80;;;2.30;99.90;;;;;;5019189;28;20434;-76
2021/01/26 09:19:39;;;;;;;6.17;5.50;;;2.30;99.90;;;;;;5003471;28;20560;-76
2021/01/26 09:22:07;;;;;;;6.40;4.97;;;2.40;99.90;;;;;;5024099;28;20429;-79
2021/01/26 09:24:37;;;;;;;10.30;5.50;;;2.30;99.90;;;;;;5025624;28;20946;-77
2021/01/26 09:27:26;;;;;;;7.70;4.23;;;2.30;99.90;;;;;;5001097;28;20439;-79
2021/01/26 09:30:15;;;;;;;5.73;4.60;;;2.40;99.90;;;;;;5026021;28;20453;-77
2021/01/26 09:32:43;;;;;;;4.67;4.20;;;2.40;99.90;;;;;;5024324;28;20801;-77
2021/01/26 09:35:29;;;;;;;6.63;4.67;;;2.40;99.90;;;;;;5024793;28;20423;-78
2021/01/26 09:38:12;;;;;;;5.27;4.77;;;2.40;99.90;;;;;;5022354;28;20950;-77
2021/01/26 09:40:41;;;;;;;4.83;4.33;;;2.40;99.90;;;;;;5020565;28;20433;-77
2021/01/26 09:43:18;;;;;;;7.43;4.50;;;2.50;99.90;;;;;;5026961;28;20426;-77
2021/01/26 09:45:44;;;;;;;4.73;4.13;;;2.50;99.90;;;;;;5022390;28;20449;-77
2021/01/26 09:48:23;;;;;;;7.17;5.80;;;2.50;99.90;;;;;;5014860;28;20431;-77
2021/01/26 09:50:49;;;;;;;6.23;4.63;;;2.50;99.90;;;;;;5002253;28;20446;-77
2021/01/26 09:53:20;;;;;;;5.30;3.77;;;2.50;99.90;;;;;;5025635;28;20946;-77
2021/01/26 09:55:45;;;;;;;8.70;5.13;;;2.50;99.90;;;;;;5005717;28;20600;-77
2021/01/26 09:58:12;;;;;;;8.83;5.13;;;2.50;99.90;;;;;;5023682;28;21679;-77
2021/01/26 10:00:38;;;;;;;5.03;4.30;;;2.50;99.90;;;;;;5035356;28;20210;-76
2021/01/26 10:03:04;;;;;;;6.30;4.47;;;2.50;99.90;;;;;;5020854;28;20514;-74
2021/01/26 10:05:30;;;;;;;10.50;5.97;;;2.60;99.90;;;;;;5027085;28;20940;-77
2021/01/26 10:08:22;;;;;;;7.07;5.47;;;2.60;99.90;;;;;;5022016;28;20226;-77
2021/01/26 10:10:49;;;;;;;6.43;4.43;;;2.60;99.90;;;;;;5026761;28;21033;-76
2021/01/26 10:13:20;;;;;;;8.77;4.60;;;2.60;99.90;;;;;;5006594;28;20441;-78
2021/01/26 10:15:45;;;;;;;5.83;4.97;;;2.60;99.90;;;;;;5027043;28;20445;-78
2021/01/26 10:18:27;;;;;;;5.47;4.97;;;2.60;99.90;;;;;;5026330;28;20520;-77
2021/01/26 10:20:59;;;;;;;6.30;4.23;;;2.60;99.90;;;;;;5009500;28;20589;-76
2021/01/26 10:23:36;;;;;;;5.60;4.30;;;2.60;99.90;;;;;;5029820;28;20541;-79
2021/01/26 10:26:23;;;;;;;4.00;3.57;;;2.70;99.90;;;;;;5020685;28;20839;-76
2021/01/26 10:29:01;;;;;;;6.00;4.40;;;2.70;99.90;;;;;;5007927;28;20441;-77
2021/01/26 10:31:38;;;;;;;4.70;4.17;;;2.80;99.90;;;;;;5025198;28;20429;-77
2021/01/26 10:34:34;;;;;;;3.83;3.33;;;2.80;99.90;;;;;;5009201;28;20437;-78
2021/01/26 10:37:18;;;;;;;4.17;3.77;;;2.80;99.90;;;;;;5012555;28;20422;-78
2021/01/26 10:39:46;;;;;;;5.73;3.67;;;2.90;99.90;;;;;;5048682;28;20537;-78
2021/01/26 10:42:23;;;;;;;6.40;4.00;;;2.90;99.90;;;;;;5043677;28;20484;-78
2021/01/26 10:44:51;;;;;;;7.00;3.67;;;3.00;99.90;;;;;;5040602;28;20426;-78
2021/01/26 10:47:23;;;;;;;6.50;3.87;;;3.00;99.90;;;;;;5042579;28;20820;-77
2021/01/26 10:49:55;;;;;;;6.67;3.53;;;3.00;99.90;;;;;;5010267;28;20503;-78
2021/01/26 10:52:35;;;;;;;3.50;3.20;;;3.00;99.90;;;;;;5006332;28;20421;-77
2021/01/26 10:55:01;;;;;;;6.60;3.90;;;3.10;99.90;;;;;;5033353;28;20480;-78
2021/01/26 10:57:26;;;;;;;3.73;3.43;;;3.00;99.90;;;;;;5028874;28;20426;-77
2021/01/26 10:59:52;;;;;;;6.93;2.90;;;3.10;99.90;;;;;;5030859;28;20217;-78
2021/01/26 11:02:17;;;;;;;3.70;2.70;;;3.20;99.90;;;;;;5028312;28;20222;-78
2021/01/26 11:04:43;;;;;;;2.87;2.20;;;3.20;99.90;;;;;;5008703;28;20816;-78
2021/01/26 11:07:08;;;;;;;2.73;2.20;;;3.30;99.90;;;;;;5017656;28;20219;-79
2021/01/26 11:09:34;;;;;;;3.50;2.33;;;3.30;99.90;;;;;;5023408;28;20226;-78
2021/01/26 11:11:59;;;;;;;3.70;2.73;;;3.40;99.90;;;;;;5026866;28;20194;-78
2021/01/26 11:14:25;;;;;;;3.70;2.73;;;3.50;99.90;;;;;;5029905;28;20568;-78
2021/01/26 11:16:51;;;;;;;7.53;2.23;;;3.50;99.90;;;;;;5011474;28;20229;-78
2021/01/26 11:19:20;;;;;;;2.17;2.03;;;3.60;99.90;;;;;;5033342;28;20214;-79
2021/01/26 11:21:46;;;;;;;2.80;2.37;;;3.50;99.90;;;;;;5034430;28;20182;-77
2021/01/26 11:24:11;;;;;;;2.80;2.40;;;3.50;99.90;;;;;;5019712;28;20422;-78
2021/01/26 11:26:37;;;;;;;2.63;2.20;;;3.40;99.90;;;;;;5008282;28;20183;-78
2021/01/26 11:29:03;;;;;;;7.23;3.30;;;3.40;99.90;;;;;;5030135;28;20223;-77
2021/01/26 11:31:28;;;;;;;4.10;2.70;;;3.30;99.90;;;;;;5030939;28;20254;-76
2021/01/26 11:33:54;;;;;;;3.50;2.80;;;3.20;99.90;;;;;;5007951;28;20188;-77
2021/01/26 11:36:19;;;;;;;4.00;2.73;;;3.20;99.90;;;;;;5028349;28;20191;-78
2021/01/26 11:38:45;;;;;;;3.30;2.33;;;3.10;99.90;;;;;;5012444;28;20290;-77
2021/01/26 11:41:11;;;;;;;8.30;3.53;;;3.10;99.90;;;;;;5030191;28;20624;-76
2021/01/26 11:43:37;;;;;;;2.30;2.10;;;3.10;99.90;;;;;;5028182;28;20981;-78
2021/01/26 11:46:05;;;;;;;4.53;2.87;;;3.10;99.90;;;;;;5010040;28;20429;-79
2021/01/26 11:48:31;;;;;;;2.90;2.60;;;3.10;99.90;;;;;;5035409;28;20449;-76
2021/01/26 11:50:57;;;;;;;3.97;3.03;;;3.10;99.90;;;;;;5030761;28;20555;-77
2021/01/26 11:53:23;;;;;;;2.00;1.90;;;3.10;99.90;;;;;;5030792;28;20194;-79
2021/01/26 11:55:49;;;;;;;3.57;2.80;;;3.10;99.90;;;;;;5011438;28;20430;-77
2021/01/26 11:58:16;;;;;;;4.77;2.63;;;3.20;99.90;;;;;;5015648;28;20256;-77
2021/01/26 12:00:41;;;;;;;7.33;3.33;;;3.20;99.90;;;;;;5029614;28;20462;-77
2021/01/26 12:03:07;;;;;;;3.30;2.20;;;3.30;99.90;;;;;;5034184;28;20795;-78
2021/01/26 12:05:37;;;;;;;3.07;2.80;;;3.30;99.90;;;;;;5035186;28;20179;-78
2021/01/26 12:08:03;;;;;;;3.23;2.73;;;3.30;99.90;;;;;;5011244;28;20430;-78
2021/01/26 12:10:29;;;;;;;3.90;2.30;;;3.30;99.90;;;;;;5032982;28;20544;-78
2021/01/26 12:12:54;;;;;;;4.73;2.97;;;3.40;99.90;;;;;;5038414;28;20465;-79
2021/01/26 12:15:33;;;;;;;2.97;2.30;;;3.30;99.90;;;;;;5037235;28;20270;-77
2021/01/26 12:17:59;;;;;;;2.60;2.40;;;3.40;99.90;;;;;;5034794;28;20262;-80
2021/01/26 12:20:27;;;;;;;4.10;2.93;;;3.40;99.90;;;;;;5029183;28;20850;-78
2021/01/26 12:22:53;;;;;;;3.77;2.53;;;3.50;99.90;;;;;;5018837;28;20187;-77
2021/01/26 12:25:19;;;;;;;4.03;3.03;;;3.50;99.90;;;;;;5020478;28;20838;-77
2021/01/26 12:27:44;;;;;;;3.97;2.33;;;3.50;99.90;;;;;;5024631;28;20924;-77
2021/01/26 12:30:11;;;;;;;4.70;2.40;;;3.60;99.90;;;;;;5002619;28;20563;-78
2021/01/26 12:32:37;;;;;;;4.53;2.80;;;3.60;99.90;;;;;;5024770;28;20711;-78
2021/01/26 12:35:33;;;;;;;3.20;2.07;;;3.60;99.90;;;;;;5029472;28;20438;-78
2021/01/26 12:37:59;;;;;;;4.30;2.47;;;3.60;99.90;;;;;;5016682;28;20724;-77
2021/01/26 12:40:26;;;;;;;2.90;2.00;;;3.60;99.90;;;;;;5007401;28;20448;-77
2021/01/26 12:42:51;;;;;;;5.37;2.97;;;3.60;99.90;;;;;;5014516;28;20514;-77
2021/01/26 12:45:20;;;;;;;3.60;2.80;;;3.60;99.90;;;;;;5028394;28;20944;-76
2021/01/26 12:47:47;;;;;;;9.53;5.47;;;3.70;99.90;;;;;;5004299;28;20602;-78
2021/01/26 12:50:17;;;;;;;7.40;4.47;;;3.70;99.90;;;;;;5021873;28;20457;-78
2021/01/26 12:52:42;;;;;;;4.10;2.80;;;3.80;99.90;;;;;;5027927;28;20503;-77
2021/01/26 12:55:09;;;;;;;3.67;2.93;;;3.80;99.90;;;;;;5024286;28;20438;-77
2021/01/26 12:57:35;;;;;;;3.60;3.23;;;3.80;99.90;;;;;;5028915;28;20199;-78
2021/01/26 13:00:01;;;;;;;4.93;3.07;;;3.80;99.90;;;;;;5007442;28;20552;-77
2021/01/26 13:02:27;;;;;;;3.20;2.90;;;3.80;99.90;;;;;;5027613;28;21359;-77
2021/01/26 13:04:53;;;;;;;3.07;2.77;;;3.90;99.90;;;;;;5010646;28;20434;-78
2021/01/26 13:07:20;;;;;;;3.93;2.00;;;3.90;99.90;;;;;;5020460;28;20426;-76
2021/01/26 13:09:45;;;;;;;3.23;2.10;;;3.90;99.90;;;;;;5005770;28;20204;-77
2021/01/26 13:12:11;;;;;;;3.13;2.30;;;3.90;99.90;;;;;;5022008;28;20733;-78
2021/01/26 13:14:39;;;;;;;3.50;2.30;;;3.90;99.90;;;;;;5033415;28;20179;-78
2021/01/26 13:17:05;;;;;;;2.70;2.17;;;3.90;99.90;;;;;;5027539;28;20214;-77
2021/01/26 13:19:30;;;;;;;2.97;2.37;;;3.90;99.90;;;;;;5028639;28;20464;-78